Latest Weather Observations for Biloela

IDQ60801

Issued at 9:32 am EST Tuesday 17 October 2017 (issued every 30 minutes, with the page automatically refreshed every 10 minutes)

About weather observations | Map of weather stations | Latest weather observations for QLD | Other Formats
Station Details ID: 039089 Name: THANGOOL AIRPORT Lat: -24.49 Lon: 150.57 Height: 193.1 m
Data from the previous 72 hours. | See also: Recent months at Biloela
Date/Time
EST
Temp
°C
App
Temp
°C
Dew
Point
°C
Rel
Hum
%
Delta-T
°C
Wind Press
QNH
hPa
Press
MSL
hPa
Rain since
9am
mm
Dir  Spd
km/h
Gust
km/h
Spd
kts
Gust
kts
17/09:30am 22.5 21.6 17.8 75 2.9 ESE 19 30 10 16 1016.2 - 0.0
17/09:00am 21.6 20.4 17.6 78 2.5 ESE 20 33 11 18 1016.0 1015.2 7.0
17/08:30am 21.3 19.6 17.3 78 2.5 ESE 22 32 12 17 1016.1 - 7.0
17/08:00am 21.0 18.5 17.0 78 2.5 E 26 39 14 21 1015.9 - 7.0
17/07:30am 21.3 18.5 17.3 78 2.5 E 28 43 15 23 1015.2 - 7.0
17/07:29am 21.3 18.6 17.5 79 2.4 ESE 28 43 15 23 1015.2 - 7.0
17/07:00am 21.0 21.1 17.4 80 2.2 ESE 13 24 7 13 1014.8 - 7.0
17/06:30am 19.7 20.2 16.5 82 1.9 SE 9 15 5 8 1014.5 - 7.0
17/06:00am 19.4 19.4 16.2 82 1.9 ESE 11 15 6 8 1014.4 1013.6 7.0
17/05:30am 19.3 19.3 16.2 82 1.9 ESE 11 15 6 8 1014.2 - 7.0
17/05:00am 19.2 19.2 16.2 83 1.8 ESE 11 17 6 9 1013.9 - 7.0
17/04:30am 19.0 19.1 16.4 85 1.6 SE 11 17 6 9 1013.4 - 7.0
17/04:00am 19.1 20.0 16.5 85 1.6 SE 7 13 4 7 1013.4 - 7.0
17/03:30am 19.2 19.3 16.4 84 1.7 SE 11 19 6 10 1013.0 - 7.0
17/03:00am 20.0 19.3 16.4 80 2.2 ESE 15 22 8 12 1013.7 1012.9 7.0
17/02:30am 19.5 20.7 16.9 85 1.6 SE 6 9 3 5 1014.2 - 7.0
17/02:00am 19.9 21.0 16.7 82 1.9 SE 6 13 3 7 1014.3 - 7.0
17/01:30am 19.7 20.8 16.7 83 1.8 SE 6 11 3 6 1014.0 - 6.8
17/01:00am 19.6 19.4 16.6 83 1.8 ESE 13 15 7 8 1014.2 - 6.8
17/12:30am 19.2 20.0 17.2 88 1.2 ESE 9 13 5 7 1014.6 - 6.8
17/12:00am 18.9 19.7 17.2 90 1.0 ESE 9 17 5 9 1014.8 1014.0 6.8
 
Date/Time
EST
Temp
°C
App
Temp
°C
Dew
Point
°C
Rel
Hum
%
Delta-T
°C
Wind Press
QNH
hPa
Press
MSL
hPa
Rain since
9am
mm
Dir  Spd
km/h
Gust
km/h
Spd
kts
Gust
kts
16/11:30pm 18.8 18.8 17.3 91 0.9 SSE 13 26 7 14 1014.9 - 6.8
16/11:18pm 18.7 19.5 17.4 92 0.8 SE 9 20 5 11 1015.0 - 6.8
16/11:00pm 18.6 19.1 17.4 93 0.7 SSE 11 17 6 9 1015.1 - 6.8
16/10:44pm 18.7 19.2 17.5 93 0.7 SSE 11 19 6 10 1015.1 - 6.8
16/10:30pm 18.8 19.7 17.6 93 0.7 SSE 9 17 5 9 1015.3 - 6.6
16/10:00pm 18.8 19.9 18.0 95 0.5 SSE 9 15 5 8 1015.4 - 6.6
16/09:30pm 18.8 19.8 17.8 94 0.6 SE 9 13 5 7 1015.5 - 5.6
16/09:00pm 18.8 20.1 17.6 93 0.7 SSE 7 11 4 6 1015.3 1014.5 4.2
16/08:30pm 18.9 20.2 17.6 92 0.8 E 7 11 4 6 1015.0 - 3.6
16/08:00pm 19.5 19.6 17.5 88 1.2 ESE 13 19 7 10 1014.8 - 3.0
16/07:30pm 19.5 19.7 17.6 89 1.2 ESE 13 20 7 11 1014.5 - 3.0
16/07:00pm 19.3 19.9 17.6 90 1.0 ESE 11 17 6 9 1014.2 - 2.8
16/06:30pm 19.7 20.6 17.5 87 1.4 ESE 9 17 5 9 1014.0 - 2.0
16/06:00pm 20.5 20.7 17.7 84 1.7 ESE 13 20 7 11 1013.6 1012.8 0.2
16/05:30pm 20.6 20.2 18.0 85 1.6 ESE 17 26 9 14 1013.4 - 0.2
16/05:25pm 20.6 20.1 17.8 84 1.7 ESE 17 26 9 14 1013.3 - 0.2
16/05:00pm 20.8 20.9 18.4 86 1.5 SE 15 22 8 12 1013.0 - 0.2
16/04:43pm 21.3 21.8 18.3 83 1.9 ESE 13 20 7 11 1012.9 - 0.2
16/04:30pm 21.7 22.2 18.3 81 2.1 ESE 13 22 7 12 1012.9 - 0.2
16/04:00pm 21.2 22.7 18.8 86 1.5 SSE 9 15 5 8 1012.7 - 0.2
16/03:39pm 20.6 21.5 18.5 88 1.3 SE 11 19 6 10 1012.8 - 0.2
16/03:30pm 20.7 21.3 18.5 87 1.4 SE 13 20 7 11 1012.8 - 0.2
16/03:27pm 20.7 21.3 18.5 87 1.4 SE 13 20 7 11 1012.8 - 0.2
16/03:00pm 21.6 21.3 18.2 81 2.1 ESE 17 24 9 13 1012.7 1011.9 0.2
16/02:30pm 22.2 22.4 18.6 80 2.3 SE 15 24 8 13 1012.6 - 0.2
16/02:00pm 22.4 22.0 18.0 76 2.8 SE 17 28 9 15 1012.9 - 0.0
16/01:30pm 22.3 22.0 17.4 74 3.0 ESE 15 20 8 11 1013.0 - 0.0
16/01:00pm 22.3 20.9 17.0 72 3.3 ESE 20 26 11 14 1013.1 - 0.0
16/12:30pm 22.1 21.9 17.5 75 2.9 SE 15 24 8 13 1013.9 - 0.0
16/12:00pm 22.1 21.9 17.7 76 2.7 SSE 15 26 8 14 1014.2 1013.4 0.0
16/11:30am 22.0 20.6 16.9 73 3.1 ESE 20 30 11 16 1014.6 - 0.0
16/11:00am 22.3 21.8 17.0 72 3.3 SE 15 26 8 14 1014.9 - 0.0
16/10:30am 22.6 21.7 16.9 70 3.5 SE 17 28 9 15 1015.2 - 0.0
16/10:00am 21.9 20.4 16.2 70 3.5 SE 19 32 10 17 1015.2 - 0.0
16/09:30am 21.8 20.0 16.1 70 3.5 SE 20 33 11 18 1015.2 - 0.0
16/09:00am 21.3 20.1 16.0 72 3.2 SE 17 32 9 17 1015.3 1014.5 0.4
16/08:30am 20.7 18.8 15.7 73 3.0 ESE 20 33 11 18 1015.3 - 0.4
16/08:00am 20.9 19.9 15.7 72 3.1 SE 15 30 8 16 1015.1 - 0.4
16/07:30am 19.9 18.9 15.7 77 2.5 SE 15 26 8 14 1015.0 - 0.4
16/07:00am 19.1 18.6 15.8 81 2.0 SE 13 22 7 12 1014.9 - 0.4
16/06:30am 18.6 18.3 15.5 82 1.8 SE 11 20 6 11 1014.7 - 0.4
16/06:00am 18.0 17.7 15.4 85 1.5 SE 11 20 6 11 1014.3 1013.5 0.4
16/05:30am 18.0 17.3 15.3 84 1.6 SE 13 19 7 10 1013.9 - 0.4
16/05:00am 18.2 17.1 15.3 83 1.7 SSE 15 24 8 13 1013.5 - 0.4
16/04:30am 18.3 17.9 15.2 82 1.8 SE 11 19 6 10 1013.4 - 0.4
16/04:00am 18.2 17.8 15.3 83 1.7 SE 11 24 6 13 1013.3 - 0.4
16/03:30am 18.3 17.5 15.2 82 1.8 SE 13 24 7 13 1013.1 - 0.4
16/03:00am 18.3 18.8 15.6 84 1.6 SSE 7 15 4 8 1013.3 1012.5 0.4
16/02:30am 18.3 18.1 15.6 84 1.6 SSE 11 20 6 11 1013.4 - 0.4
16/02:00am 18.2 17.5 15.5 84 1.6 SE 13 20 7 11 1013.4 - 0.4
16/01:30am 18.3 18.4 15.6 84 1.6 SSE 9 15 5 8 1013.6 - 0.4
16/01:00am 18.4 18.1 15.5 83 1.7 SSE 11 20 6 11 1014.3 - 0.4
16/12:30am 18.6 18.3 15.5 82 1.8 SE 11 19 6 10 1014.4 - 0.4
16/12:00am 18.6 18.8 15.8 84 1.7 SE 9 15 5 8 1014.6 1013.8 0.4
 
Date/Time
EST
Temp
°C
App
Temp
°C
Dew
Point
°C
Rel
Hum
%
Delta-T
°C
Wind Press
QNH
hPa
Press
MSL
hPa
Rain since
9am
mm
Dir  Spd
km/h
Gust
km/h
Spd
kts
Gust
kts
15/11:30pm 18.6 18.1 15.8 84 1.7 SE 13 20 7 11 1014.8 - 0.4
15/11:00pm 18.5 18.4 15.9 85 1.6 SSE 11 20 6 11 1014.9 - 0.4
15/10:30pm 18.7 18.6 16.1 85 1.6 SE 11 20 6 11 1015.3 - 0.4
15/10:00pm 18.6 19.0 16.4 87 1.3 SSE 9 17 5 9 1015.2 - 0.4
15/09:30pm 19.0 19.5 16.6 86 1.5 SSE 9 13 5 7 1015.5 - 0.4
15/09:00pm 19.0 19.1 16.4 85 1.6 SE 11 20 6 11 1015.3 1014.5 0.4
15/08:30pm 19.1 19.1 16.3 84 1.7 SE 11 20 6 11 1015.2 - 0.4
15/08:00pm 19.0 18.9 16.0 83 1.8 ESE 11 17 6 9 1014.5 - 0.4
15/07:30pm 19.2 18.4 16.1 82 1.9 SE 15 22 8 12 1013.9 - 0.4
15/07:00pm 19.3 18.5 16.2 82 1.9 SE 15 28 8 15 1013.6 - 0.4
15/06:30pm 19.7 18.1 16.0 79 2.2 SE 19 32 10 17 1013.7 - 0.4
15/06:00pm 20.6 20.2 16.2 76 2.7 SE 13 28 7 15 1013.7 1012.9 0.4
15/05:30pm 21.1 20.0 16.3 74 2.9 ESE 17 24 9 13 1013.3 - 0.4
15/05:00pm 21.2 19.7 16.4 74 2.9 ESE 19 28 10 15 1013.1 - 0.4
15/04:30pm 21.3 20.0 16.7 75 2.8 ESE 19 30 10 16 1012.7 - 0.2
15/04:00pm 21.0 19.8 17.6 81 2.1 ESE 20 32 11 17 1012.5 - 0.2
15/03:30pm 23.0 21.4 16.1 65 4.2 SSE 19 33 10 18 1012.1 - 0.2
15/03:00pm 24.7 25.2 15.6 57 5.6 SSE 7 13 4 7 1012.1 1011.4 0.2
15/02:30pm 24.4 24.5 15.6 58 5.4 SSE 9 15 5 8 1012.2 - 0.2
15/02:00pm 23.4 22.1 15.7 62 4.7 E 17 24 9 13 1012.5 - 0.2
15/01:30pm 24.8 25.1 16.0 58 5.4 SE 9 15 5 8 1012.6 - 0.2
15/01:00pm 24.8 24.3 16.0 58 5.4 SE 13 20 7 11 1012.7 - 0.2
15/12:30pm 24.4 23.7 15.3 57 5.5 SE 13 20 7 11 1013.1 - 0.2
15/12:00pm 23.5 23.1 15.3 60 5.0 SSE 11 15 6 8 1013.6 1012.8 0.0
15/11:30am 23.3 23.1 15.6 62 4.7 SSE 11 15 6 8 1014.2 - 0.0
15/11:00am 22.5 22.6 15.6 65 4.2 SE 9 15 5 8 1014.5 - 0.0
15/10:30am 22.2 21.7 16.0 68 3.8 SSE 13 20 7 11 1014.8 - 0.0
15/10:00am 22.2 22.0 15.8 67 3.9 SSE 11 19 6 10 1014.9 - 0.0
15/09:30am 21.5 21.6 15.6 69 3.6 S 9 17 5 9 1015.2 - 0.0
15/09:00am 21.3 21.1 15.8 71 3.3 ESE 11 17 6 9 1015.3 1014.5 30.4
15/08:30am 21.1 20.7 16.3 74 2.9 ESE 13 20 7 11 1015.0 - 30.4
15/08:04am 21.2 20.2 15.7 71 3.3 ESE 15 24 8 13 1014.8 - 30.4
15/08:00am 20.9 20.3 15.7 72 3.1 ESE 13 24 7 13 1014.8 - 30.4
15/07:54am 20.5 20.4 16.1 76 2.7 SE 11 17 6 9 1014.8 - 30.4
15/07:30am 20.1 20.5 16.3 79 2.3 SSE 9 17 5 9 1014.4 - 30.4
15/07:00am 19.4 20.6 17.4 88 1.2 SSE 7 11 4 6 1014.0 - 30.4
15/06:30am 17.8 18.6 16.3 91 0.9 SSE 7 9 4 5 1013.8 - 30.4
15/06:00am 16.6 18.1 15.6 94 0.6 SE 2 6 1 3 1013.5 1012.7 30.4
15/05:30am 16.8 18.2 15.5 92 0.8 SE 2 7 1 4 1013.2 - 30.4
15/05:00am 16.9 17.5 15.8 93 0.7 ESE 7 11 4 6 1013.0 - 30.4
15/04:30am 17.0 17.3 15.9 93 0.7 E 9 11 5 6 1013.1 - 30.4
15/04:00am 17.0 17.6 15.7 92 0.8 SSE 7 9 4 5 1013.1 - 30.4
15/03:30am 16.9 17.5 15.8 93 0.7 ESE 7 13 4 7 1012.8 - 30.4
15/03:00am 17.0 17.2 15.7 92 0.8 ESE 9 11 5 6 1012.9 1012.1 30.4
15/02:30am 16.9 18.1 15.8 93 0.7 SE 4 7 2 4 1013.1 - 30.4
15/02:00am 16.9 18.1 15.8 93 0.7 S 4 7 2 4 1013.3 - 30.4
15/01:30am 16.8 17.6 15.8 94 0.6 S 6 11 3 6 1013.4 - 30.4
15/01:00am 17.0 17.7 16.0 94 0.6 SSE 7 9 4 5 1013.6 - 30.4
15/12:30am 16.8 17.5 16.0 95 0.5 SSW 7 9 4 5 1013.7 - 30.4
15/12:00am 16.9 17.7 15.8 93 0.7 W 6 11 3 6 1013.9 1013.1 30.4
 
Date/Time
EST
Temp
°C
App
Temp
°C
Dew
Point
°C
Rel
Hum
%
Delta-T
°C
Wind Press
QNH
hPa
Press
MSL
hPa
Rain since
9am
mm
Dir  Spd
km/h
Gust
km/h
Spd
kts
Gust
kts
14/11:30pm 16.9 18.9 15.9 94 0.6 CALM 0 0 0 0 1014.5 - 30.4
14/11:00pm 16.6 18.4 15.6 94 0.6 CALM 0 0 0 0 1015.0 - 30.2
14/10:30pm 16.8 16.4 15.3 91 0.9 E 11 17 6 9 1015.1 - 30.0
14/10:00pm 17.0 15.1 15.7 92 0.8 E 20 28 11 15 1015.3 - 29.4
14/09:30pm 16.9 15.6 15.9 94 0.6 ESE 17 26 9 14 1015.8 - 27.6
14/09:00pm 17.2 14.6 15.9 92 0.8 ESE 24 35 13 19 1016.0 1015.2 24.6
14/08:30pm 17.7 16.6 16.4 92 0.8 SSE 17 28 9 15 1015.7 - 23.0
14/08:20pm 17.7 16.5 16.2 91 0.9 SSE 17 32 9 17 1015.6 - 22.6
14/08:05pm 17.9 16.5 16.9 94 0.6 S 20 35 11 19 1015.6 - 21.6
14/08:00pm 17.8 16.3 16.7 93 0.7 SSE 20 35 11 19 1015.6 - 20.6
14/07:53pm 17.7 16.5 16.0 90 1.0 S 17 35 9 19 1015.5 - 16.8
14/07:46pm 18.9 17.3 16.1 84 1.7 S 19 33 10 18 1015.3 - 7.6
14/07:32pm 20.3 23.6 19.0 92 0.8 CALM 0 7 0 4 1014.3 - 5.2
14/07:30pm 20.3 23.6 19.0 92 0.8 CALM 0 0 0 0 1014.2 - 5.2
14/07:12pm 20.5 22.8 18.6 89 1.2 E 4 9 2 5 1013.9 - 5.2
14/07:00pm 20.7 22.5 18.8 89 1.2 E 7 11 4 6 1013.5 - 5.2
14/06:30pm 20.6 21.9 18.4 87 1.4 E 9 11 5 6 1013.1 - 4.8
14/06:00pm 21.1 22.0 18.3 84 1.8 NNE 11 17 6 9 1012.8 1012.0 4.6
14/05:57pm 20.8 22.2 18.7 88 1.3 NNE 9 15 5 8 1012.8 - 4.6
14/05:40pm 20.4 22.1 18.5 89 1.2 E 7 11 4 6 1012.7 - 3.6
14/05:30pm 20.8 21.7 18.4 86 1.5 NE 11 17 6 9 1012.6 - 2.2
14/05:00pm 22.1 20.9 17.5 75 2.9 E 20 30 11 16 1012.1 - 0.0
14/04:30pm 25.5 25.8 16.1 56 5.8 NW 9 13 5 7 1011.6 - 0.0
14/04:00pm 25.7 25.3 16.3 56 5.8 NE 13 17 7 9 1011.3 - 0.0
14/03:30pm 27.0 27.3 16.0 51 6.8 E 9 19 5 10 1011.2 - 0.0
14/03:00pm 26.5 26.9 15.2 49 6.9 S 7 11 4 6 1011.5 1010.7 0.0
14/02:30pm 25.5 25.8 14.6 51 6.6 ENE 6 9 3 5 1011.8 - 0.0
14/02:00pm 25.1 26.0 16.5 59 5.3 S 7 11 4 6 1012.5 - 0.0
14/01:30pm 24.3 24.9 15.8 59 5.2 SSE 7 11 4 6 1013.0 - 0.0
14/01:00pm 23.8 24.2 16.3 63 4.6 SE 9 13 5 7 1013.3 - 0.0
14/12:30pm 23.3 24.1 17.3 69 3.7 S 9 15 5 8 1014.0 - 0.0
14/12:00pm 21.8 22.4 16.7 73 3.1 SSE 9 13 5 7 1014.6 1013.8 0.0
14/11:30am 21.4 22.3 17.6 79 2.4 SE 9 15 5 8 1014.9 - 0.0
14/11:00am 21.3 22.2 17.5 79 2.4 SSE 9 15 5 8 1015.3 - 0.0
14/10:30am 21.2 21.9 18.0 82 2.0 SSE 11 19 6 10 1015.7 - 0.0
14/10:00am 21.8 23.4 17.8 78 2.5 SSE 6 9 3 5 1015.9 - 0.0

Other Formats:

Comma delimited format used in spreadsheet applications
http://www.bom.gov.au/fwo/IDQ60801/IDQ60801.94376.axf

JavaScript Object Notation format (JSON) in row-major order
http://www.bom.gov.au/fwo/IDQ60801/IDQ60801.94376.json